createdAt,value
2019-02-06T00:00:40.888Z,-1.80
2019-02-06T00:03:10.523Z,-1.80
2019-02-06T00:05:39.322Z,-1.80
2019-02-06T00:08:07.987Z,-1.80
2019-02-06T00:10:36.431Z,-1.80
2019-02-06T00:13:05.136Z,-1.80
2019-02-06T00:15:33.551Z,-1.90
2019-02-06T00:18:02.074Z,-2.00
2019-02-06T00:20:30.975Z,-2.10
2019-02-06T00:22:59.399Z,-2.10
2019-02-06T00:25:28.109Z,-2.20
2019-02-06T00:27:56.595Z,-2.20
2019-02-06T00:30:25.716Z,-2.20
2019-02-06T00:32:54.159Z,-2.20
2019-02-06T00:35:25.911Z,-2.20
2019-02-06T00:37:53.520Z,-2.20
2019-02-06T00:40:21.958Z,-2.40
2019-02-06T00:42:50.376Z,-2.40
2019-02-06T00:45:18.843Z,-2.40
2019-02-06T00:47:47.255Z,-2.40
2019-02-06T00:50:16.753Z,-2.50
2019-02-06T00:52:45.154Z,-2.50
2019-02-06T00:55:15.134Z,-2.40
2019-02-06T00:57:43.820Z,-2.50
2019-02-06T01:00:19.834Z,-2.50
2019-02-06T01:02:48.715Z,-2.50
2019-02-06T01:05:18.344Z,-2.50
2019-02-06T01:07:50.556Z,-2.50
2019-02-06T01:10:20.791Z,-2.50
2019-02-06T01:12:49.212Z,-2.50
2019-02-06T01:15:17.952Z,-2.50
2019-02-06T01:17:46.378Z,-2.50
2019-02-06T01:20:16.732Z,-2.50
2019-02-06T01:22:50.243Z,-2.50
2019-02-06T01:25:18.727Z,-2.50
2019-02-06T01:27:47.443Z,-2.50
2019-02-06T01:30:25.334Z,-2.60
2019-02-06T01:32:53.851Z,-2.50
2019-02-06T01:35:22.278Z,-2.40
2019-02-06T01:37:50.702Z,-2.40
2019-02-06T01:40:21.187Z,-2.40
2019-02-06T01:42:49.884Z,-2.30
2019-02-06T01:45:22.145Z,-2.30
2019-02-06T01:47:50.615Z,-2.30
2019-02-06T01:50:19.090Z,-2.40
2019-02-06T01:52:51.578Z,-2.50
2019-02-06T01:55:20.003Z,-2.50
2019-02-06T01:57:48.469Z,-2.60
2019-02-06T02:00:22.310Z,-2.70
2019-02-06T02:02:50.892Z,-2.80
2019-02-06T02:05:21.149Z,-2.70
2019-02-06T02:07:50.911Z,-2.60
2019-02-06T02:10:20.689Z,-2.60
2019-02-06T02:12:49.683Z,-2.60
2019-02-06T02:15:19.662Z,-2.60
2019-02-06T02:17:48.618Z,-2.70
2019-02-06T02:20:19.312Z,-2.70
2019-02-06T02:22:48.102Z,-2.60
2019-02-06T02:25:25.098Z,-2.60
2019-02-06T02:27:53.914Z,-2.60
2019-02-06T02:30:26.084Z,-2.70
2019-02-06T02:32:54.590Z,-2.70
2019-02-06T02:35:23.100Z,-2.60
2019-02-06T02:37:51.763Z,-2.70
2019-02-06T02:40:23.748Z,-2.70
2019-02-06T02:42:52.195Z,-2.70
2019-02-06T02:45:20.895Z,-2.60
2019-02-06T02:47:49.410Z,-2.60
2019-02-06T02:50:17.826Z,-2.70
2019-02-06T02:52:46.268Z,-2.60
2019-02-06T02:55:18.864Z,-2.60
2019-02-06T02:57:47.287Z,-2.70
2019-02-06T03:00:19.648Z,-2.70
2019-02-06T03:02:49.784Z,-2.80
2019-02-06T03:05:19.694Z,-2.80
2019-02-06T03:07:48.202Z,-2.90
2019-02-06T03:10:16.892Z,-2.80
2019-02-06T03:12:45.320Z,-2.90
2019-02-06T03:15:14.028Z,-2.90
2019-02-06T03:17:43.223Z,-2.90
2019-02-06T03:20:13.980Z,-2.80
2019-02-06T03:22:42.420Z,-2.80
2019-02-06T03:25:16.367Z,-2.80
2019-02-06T03:27:44.784Z,-2.80
2019-02-06T03:30:16.481Z,-2.80
2019-02-06T03:32:45.233Z,-2.90
2019-02-06T03:35:14.320Z,-2.90
2019-02-06T03:37:42.871Z,-2.90
2019-02-06T03:40:20.479Z,-2.90
2019-02-06T03:42:49.029Z,-2.90
2019-02-06T03:45:17.901Z,-2.90
2019-02-06T03:47:46.314Z,-2.90
2019-02-06T03:50:19.786Z,-2.80
2019-02-06T03:52:48.290Z,-2.80
2019-02-06T03:55:20.335Z,-2.80
2019-02-06T03:57:48.893Z,-2.90
2019-02-06T04:00:19.257Z,-2.90
2019-02-06T04:02:47.684Z,-2.90
2019-02-06T04:05:16.392Z,-2.90
2019-02-06T04:07:44.846Z,-2.90
2019-02-06T04:10:20.539Z,-3.00
2019-02-06T04:12:49.360Z,-3.00
2019-02-06T04:15:18.245Z,-3.00
2019-02-06T04:17:46.920Z,-3.00
2019-02-06T04:20:16.588Z,-3.00
2019-02-06T04:22:45.266Z,-3.10
2019-02-06T04:25:14.971Z,-3.10
2019-02-06T04:27:43.478Z,-3.10
2019-02-06T04:30:17.391Z,-3.20
2019-02-06T04:32:45.894Z,-3.20
2019-02-06T04:35:15.580Z,-3.10
2019-02-06T04:37:44.480Z,-3.00
2019-02-06T04:40:18.352Z,-3.00
2019-02-06T04:42:47.630Z,-3.00
2019-02-06T04:45:18.367Z,-3.00
2019-02-06T04:47:47.263Z,-3.00
2019-02-06T04:50:17.322Z,-3.00
2019-02-06T04:52:46.332Z,-3.10
2019-02-06T04:55:16.963Z,-3.10
2019-02-06T04:57:46.149Z,-3.10
2019-02-06T05:00:23.172Z,-3.10
2019-02-06T05:02:51.960Z,-3.10
2019-02-06T05:05:20.440Z,-3.10
2019-02-06T05:07:49.260Z,-3.10
2019-02-06T05:10:18.363Z,-3.20
2019-02-06T05:12:47.247Z,-3.30
2019-02-06T05:15:17.745Z,-3.30
2019-02-06T05:17:46.283Z,-3.30
2019-02-06T05:20:33.103Z,-3.30
2019-02-06T05:23:01.551Z,-3.30
2019-02-06T05:25:29.987Z,-3.30
2019-02-06T05:27:58.482Z,-3.30
2019-02-06T05:30:26.992Z,-3.30
2019-02-06T05:32:55.411Z,-3.30
2019-02-06T05:35:23.859Z,-3.30
2019-02-06T05:37:52.308Z,-3.30
2019-02-06T05:40:20.751Z,-3.30
2019-02-06T05:42:52.521Z,-3.30
2019-02-06T05:45:19.439Z,-3.30
2019-02-06T05:47:47.866Z,-3.40
2019-02-06T05:50:19.832Z,-3.40
2019-02-06T05:52:48.245Z,-3.40
2019-02-06T05:55:18.432Z,-3.60
2019-02-06T05:57:48.047Z,-3.50
2019-02-06T06:00:24.132Z,-3.60
2019-02-06T06:02:52.625Z,-3.60
2019-02-06T06:05:21.119Z,-3.60
2019-02-06T06:07:49.534Z,-3.70
2019-02-06T06:10:19.177Z,-3.70
2019-02-06T06:12:48.135Z,-3.70
2019-02-06T06:15:18.880Z,-3.70
2019-02-06T06:17:47.358Z,-3.60
2019-02-06T06:20:18.899Z,-3.60
2019-02-06T06:22:47.407Z,-3.60
2019-02-06T06:25:17.811Z,-3.50
2019-02-06T06:27:46.872Z,-3.50
2019-02-06T06:30:17.558Z,-3.50
2019-02-06T06:32:45.992Z,-3.40
2019-02-06T06:35:15.485Z,-3.50
2019-02-06T06:37:55.573Z,-3.40
2019-02-06T06:40:22.606Z,-3.40
2019-02-06T06:42:51.485Z,-3.40
2019-02-06T06:45:26.047Z,-3.40
2019-02-06T06:47:54.609Z,-3.30
2019-02-06T06:50:24.867Z,-3.30
2019-02-06T06:52:53.547Z,-3.30
2019-02-06T06:55:22.338Z,-3.30
2019-02-06T06:57:54.693Z,-3.30
2019-02-06T07:00:30.442Z,-3.20
2019-02-06T07:02:59.412Z,-3.20
2019-02-06T07:05:27.897Z,-3.20
2019-02-06T07:08:08.572Z,-3.10
2019-02-06T07:10:26.964Z,-3.10
2019-02-06T07:12:55.401Z,-3.10
2019-02-06T07:15:37.485Z,-3.10
2019-02-06T07:18:05.975Z,-3.00
2019-02-06T07:20:34.439Z,-3.00
2019-02-06T07:23:03.263Z,-2.90
2019-02-06T07:25:32.116Z,-2.90
2019-02-06T07:28:00.634Z,-2.90
2019-02-06T07:30:39.641Z,-2.80
2019-02-06T07:33:08.051Z,-2.70
2019-02-06T07:35:36.625Z,-2.70
2019-02-06T07:38:05.195Z,-2.60
2019-02-06T07:40:33.616Z,-2.50
2019-02-06T07:43:02.050Z,-2.50
2019-02-06T07:45:30.472Z,-2.50
2019-02-06T07:47:58.923Z,-2.50
2019-02-06T07:50:34.847Z,-2.50
2019-02-06T07:53:03.467Z,-2.40
2019-02-06T07:55:31.879Z,-2.30
2019-02-06T07:58:00.371Z,-2.30
2019-02-06T08:00:29.047Z,-2.30
2019-02-06T08:02:59.175Z,-2.20
2019-02-06T08:05:28.133Z,-2.20
2019-02-06T08:07:57.095Z,-2.10
2019-02-06T08:10:31.227Z,-2.00
2019-02-06T08:13:00.282Z,-2.00
2019-02-06T08:15:29.086Z,-1.90
2019-02-06T08:17:57.544Z,-1.80
2019-02-06T08:20:26.367Z,-1.80
2019-02-06T08:22:55.456Z,-1.70
2019-02-06T08:25:25.280Z,-1.60
2019-02-06T08:27:53.851Z,-1.60
2019-02-06T08:30:34.739Z,-1.60
2019-02-06T08:33:03.403Z,-1.60
2019-02-06T08:35:32.608Z,-1.80
2019-02-06T08:38:01.118Z,-1.70
2019-02-06T08:40:31.275Z,-1.60
2019-02-06T08:43:00.650Z,-1.50
2019-02-06T08:45:32.485Z,-1.50
2019-02-06T08:48:00.898Z,-1.50
2019-02-06T08:50:29.826Z,-1.40
2019-02-06T08:52:58.312Z,-1.40
2019-02-06T08:55:29.979Z,-1.30
2019-02-06T08:57:58.426Z,-1.10
2019-02-06T09:00:38.382Z,-1.10
2019-02-06T09:03:08.838Z,-1.10
2019-02-06T09:05:37.835Z,-1.10
2019-02-06T09:08:06.951Z,-1.00
2019-02-06T09:10:36.107Z,-0.90
2019-02-06T09:13:05.792Z,-0.90
2019-02-06T09:15:37.296Z,-0.80
2019-02-06T09:18:07.068Z,-0.80
2019-02-06T09:20:35.850Z,-0.70
2019-02-06T09:23:04.481Z,-0.80
2019-02-06T09:25:33.167Z,-0.80
2019-02-06T09:28:01.592Z,-0.80
2019-02-06T09:30:35.566Z,-0.80
2019-02-06T09:33:05.400Z,-0.80
2019-02-06T09:35:33.846Z,-0.80
2019-02-06T09:38:02.559Z,-0.70
2019-02-06T09:40:31.858Z,-0.60
2019-02-06T09:43:00.853Z,-0.60
2019-02-06T09:45:29.775Z,-0.50
2019-02-06T09:47:58.362Z,-0.50
2019-02-06T09:50:29.887Z,-0.40
2019-02-06T09:52:58.319Z,-0.20
2019-02-06T09:55:26.819Z,-0.20
2019-02-06T09:57:55.323Z,-0.10
2019-02-06T10:00:32.166Z,-0.20
2019-02-06T10:03:01.443Z,-0.10
2019-02-06T10:05:29.899Z,0.00
2019-02-06T10:07:58.443Z,0.10
2019-02-06T10:10:28.122Z,0.20
2019-02-06T10:12:56.576Z,0.30
2019-02-06T10:15:27.814Z,0.30
2019-02-06T10:17:57.278Z,0.40
2019-02-06T10:20:28.815Z,0.50
2019-02-06T10:22:57.308Z,0.70
2019-02-06T10:25:26.017Z,0.90
2019-02-06T10:27:54.590Z,0.90
2019-02-06T10:30:26.154Z,0.80
2019-02-06T10:32:54.614Z,0.80
2019-02-06T10:35:23.173Z,0.90
2019-02-06T10:37:52.095Z,0.90
2019-02-06T10:40:21.074Z,1.00
2019-02-06T10:42:49.571Z,1.00
2019-02-06T10:45:21.134Z,1.00
2019-02-06T10:47:49.891Z,1.00
2019-02-06T10:50:26.832Z,0.90
2019-02-06T10:52:55.527Z,0.80
2019-02-06T10:55:24.027Z,0.60
2019-02-06T10:57:52.477Z,0.70
2019-02-06T11:00:30.055Z,0.60
2019-02-06T11:02:58.846Z,0.60
2019-02-06T11:05:27.328Z,0.70
2019-02-06T11:07:55.747Z,0.70
2019-02-06T11:10:26.600Z,0.80
2019-02-06T11:12:55.051Z,0.90
2019-02-06T11:15:24.298Z,0.70
2019-02-06T11:17:53.124Z,0.60
2019-02-06T11:20:24.503Z,0.30
2019-02-06T11:22:53.027Z,0.10
2019-02-06T11:25:21.452Z,0.00
2019-02-06T11:27:49.898Z,-0.10
2019-02-06T11:30:27.271Z,-0.10
2019-02-06T11:32:59.314Z,-0.10
2019-02-06T11:35:27.807Z,-0.10
2019-02-06T11:37:56.245Z,0.00
2019-02-06T11:40:25.297Z,0.20
2019-02-06T11:42:54.862Z,0.30
2019-02-06T11:45:33.513Z,0.40
2019-02-06T11:48:04.850Z,0.30
2019-02-06T11:50:45.231Z,0.40
2019-02-06T11:53:16.266Z,0.40
2019-02-06T11:55:44.785Z,0.50
2019-02-06T11:58:13.196Z,0.60
2019-02-06T12:00:48.619Z,0.60
2019-02-06T12:03:16.989Z,0.70
2019-02-06T12:05:45.502Z,0.70
2019-02-06T12:08:14.498Z,0.80
2019-02-06T12:10:43.467Z,0.90
2019-02-06T12:13:12.302Z,1.00
2019-02-06T12:15:40.709Z,1.10
2019-02-06T12:18:09.131Z,1.10
2019-02-06T12:20:41.115Z,1.20
2019-02-06T12:23:09.559Z,1.10
2019-02-06T12:25:38.110Z,1.20
2019-02-06T12:28:06.875Z,1.30
2019-02-06T12:30:38.227Z,1.40
2019-02-06T12:33:06.649Z,1.50
2019-02-06T12:35:39.467Z,1.50
2019-02-06T12:38:08.004Z,1.60
2019-02-06T12:40:37.354Z,1.60
2019-02-06T12:43:10.416Z,1.70
2019-02-06T12:45:37.744Z,1.70
2019-02-06T12:48:06.592Z,1.70
2019-02-06T12:50:38.041Z,1.70
2019-02-06T12:53:07.000Z,1.70
2019-02-06T12:55:38.488Z,1.70
2019-02-06T12:58:08.448Z,1.70
2019-02-06T13:00:40.508Z,1.70
2019-02-06T13:03:08.997Z,1.70
2019-02-06T13:05:40.799Z,1.80
2019-02-06T13:08:09.212Z,1.70
2019-02-06T13:10:37.635Z,1.70
2019-02-06T13:13:06.618Z,1.70
2019-02-06T13:15:35.364Z,1.80
2019-02-06T13:18:04.077Z,1.70
2019-02-06T13:20:37.807Z,1.80
2019-02-06T13:23:06.501Z,2.00
2019-02-06T13:25:34.906Z,2.00
2019-02-06T13:28:03.801Z,2.10
2019-02-06T13:30:36.008Z,2.00
2019-02-06T13:33:06.535Z,2.10
2019-02-06T13:35:35.495Z,2.10
2019-02-06T13:38:04.470Z,2.20
2019-02-06T13:40:44.742Z,2.10
2019-02-06T13:43:03.115Z,2.10
2019-02-06T13:45:41.259Z,2.10
2019-02-06T13:48:10.326Z,2.10
2019-02-06T13:50:38.725Z,2.10
2019-02-06T13:53:07.202Z,2.10
2019-02-06T13:55:35.688Z,2.10
2019-02-06T13:58:05.424Z,2.10
2019-02-06T14:00:36.376Z,2.10
2019-02-06T14:03:06.580Z,2.10
2019-02-06T14:05:35.527Z,2.10
2019-02-06T14:08:07.315Z,2.20
2019-02-06T14:10:35.811Z,2.20
2019-02-06T14:13:04.674Z,2.20
2019-02-06T14:15:38.646Z,2.20
2019-02-06T14:18:07.915Z,2.20
2019-02-06T14:20:39.578Z,2.30
2019-02-06T14:23:11.246Z,2.20
2019-02-06T14:25:46.307Z,2.10
2019-02-06T14:28:44.415Z,2.20
2019-02-06T14:31:27.616Z,2.10
2019-02-06T14:34:11.004Z,2.10
2019-02-06T14:36:55.043Z,2.00
2019-02-06T14:39:29.299Z,1.90
2019-02-06T14:42:19.671Z,1.90
2019-02-06T14:44:52.606Z,1.90
2019-02-06T14:47:29.911Z,1.90
2019-02-06T14:50:13.419Z,1.80
2019-02-06T14:53:01.385Z,1.80
2019-02-06T14:55:38.887Z,1.70
2019-02-06T14:58:10.390Z,1.60
2019-02-06T15:00:59.651Z,1.60
2019-02-06T15:03:35.402Z,1.60
2019-02-06T15:06:12.859Z,1.60
2019-02-06T15:08:53.024Z,1.50
2019-02-06T15:11:30.607Z,1.50
2019-02-06T15:14:05.130Z,1.40
2019-02-06T15:16:36.636Z,1.30
2019-02-06T15:19:20.248Z,1.30
2019-02-06T15:21:52.267Z,1.30
2019-02-06T15:24:29.779Z,1.20
2019-02-06T15:27:19.296Z,1.10
2019-02-06T15:30:02.555Z,0.90
2019-02-06T15:32:39.196Z,0.80
2019-02-06T15:35:22.756Z,0.70
2019-02-06T15:38:00.522Z,0.60
2019-02-06T15:40:35.070Z,0.50
2019-02-06T15:43:06.589Z,0.30
2019-02-06T15:45:52.891Z,0.20
2019-02-06T15:48:43.688Z,0.10
2019-02-06T15:51:15.187Z,0.10
2019-02-06T15:54:09.473Z,-0.10
2019-02-06T15:56:43.691Z,-0.20
2019-02-06T15:59:18.119Z,-0.30
2019-02-06T16:02:16.699Z,-0.40
2019-02-06T16:04:52.535Z,-0.50
2019-02-06T16:07:48.170Z,-0.70
2019-02-06T16:10:45.516Z,-0.80
2019-02-06T16:13:34.899Z,-0.90
2019-02-06T16:16:23.124Z,-1.00
2019-02-06T16:19:09.395Z,-1.10
2019-02-06T16:21:53.488Z,-1.10
2019-02-06T16:24:32.640Z,-1.20
2019-02-06T16:27:06.881Z,-1.30
2019-02-06T16:29:41.033Z,-1.40
2019-02-06T16:32:18.339Z,-1.50
2019-02-06T16:34:58.539Z,-1.60
2019-02-06T16:37:58.676Z,-1.60
2019-02-06T16:40:49.878Z,-1.60
2019-02-06T16:43:24.322Z,-1.70
2019-02-06T16:46:07.808Z,-1.70
2019-02-06T16:48:44.952Z,-1.70
2019-02-06T16:51:19.446Z,-1.80
2019-02-06T16:53:51.056Z,-1.90
2019-02-06T16:56:48.222Z,-1.90
2019-02-06T16:59:30.906Z,-2.00
2019-02-06T17:02:23.449Z,-2.00
2019-02-06T17:05:12.788Z,-2.10
2019-02-06T17:07:57.094Z,-2.10
2019-02-06T17:10:45.941Z,-2.20
2019-02-06T17:13:47.555Z,-2.30
2019-02-06T17:16:21.694Z,-2.30
2019-02-06T17:18:59.527Z,-2.30
2019-02-06T17:21:51.339Z,-2.30
2019-02-06T17:24:34.633Z,-2.30
2019-02-06T17:27:11.842Z,-2.40
2019-02-06T17:29:51.594Z,-2.40
2019-02-06T17:32:28.544Z,-2.50
2019-02-06T17:35:18.170Z,-2.50
2019-02-06T17:38:25.498Z,-2.60
2019-02-06T17:41:02.945Z,-2.60
2019-02-06T17:43:37.558Z,-2.70
2019-02-06T17:46:20.560Z,-2.70
2019-02-06T17:49:11.664Z,-2.70
2019-02-06T17:52:05.742Z,-2.80
2019-02-06T17:54:51.897Z,-2.80
2019-02-06T17:57:23.304Z,-2.80
2019-02-06T17:59:51.723Z,-2.80
2019-02-06T18:02:20.458Z,-2.90
2019-02-06T18:04:48.866Z,-2.90
2019-02-06T18:07:17.314Z,-2.90
2019-02-06T18:09:49.965Z,-3.00
2019-02-06T18:12:26.165Z,-3.00
2019-02-06T18:14:48.638Z,-3.10
2019-02-06T18:17:17.438Z,-3.10
2019-02-06T18:19:45.879Z,-3.10
2019-02-06T18:22:14.308Z,-3.20
2019-02-06T18:24:47.084Z,-3.20
2019-02-06T18:27:15.513Z,-3.20
2019-02-06T18:29:44.036Z,-3.20
2019-02-06T18:32:12.662Z,-3.20
2019-02-06T18:34:41.550Z,-3.30
2019-02-06T18:37:10.602Z,-3.30
2019-02-06T18:39:39.027Z,-3.40
2019-02-06T18:42:11.051Z,-3.30
2019-02-06T18:44:39.503Z,-3.30
2019-02-06T18:47:08.044Z,-3.40
2019-02-06T18:49:36.551Z,-3.40
2019-02-06T18:52:06.124Z,-3.40
2019-02-06T18:54:34.642Z,-3.40
2019-02-06T18:57:03.086Z,-3.50
2019-02-06T18:59:31.545Z,-3.50
2019-02-06T19:02:00.261Z,-3.50
2019-02-06T19:04:28.948Z,-3.50
2019-02-06T19:06:57.553Z,-3.50
2019-02-06T19:09:28.891Z,-3.50
2019-02-06T19:11:56.284Z,-3.50
2019-02-06T19:14:24.794Z,-3.60
2019-02-06T19:16:53.247Z,-3.50
2019-02-06T19:19:25.400Z,-3.50
2019-02-06T19:21:51.911Z,-3.50
2019-02-06T19:24:20.362Z,-3.50
2019-02-06T19:26:48.803Z,-3.50
2019-02-06T19:29:17.252Z,-3.50
2019-02-06T19:31:45.975Z,-3.50
2019-02-06T19:34:14.388Z,-3.50
2019-02-06T19:36:42.839Z,-3.40
2019-02-06T19:39:14.253Z,-3.30
2019-02-06T19:41:45.355Z,-3.30
2019-02-06T19:44:13.983Z,-3.30
2019-02-06T19:46:42.864Z,-3.20
2019-02-06T19:49:11.342Z,-3.20
2019-02-06T19:51:40.039Z,-3.10
2019-02-06T19:54:08.550Z,-3.10
2019-02-06T19:56:37.123Z,-3.20
2019-02-06T19:59:06.267Z,-3.10
2019-02-06T20:01:34.808Z,-3.10
2019-02-06T20:04:04.237Z,-3.10
2019-02-06T20:06:40.164Z,-3.10
2019-02-06T20:09:09.169Z,-3.10
2019-02-06T20:11:37.822Z,-3.10
2019-02-06T20:14:06.671Z,-3.10
2019-02-06T20:16:35.247Z,-3.10
2019-02-06T20:19:04.186Z,-3.10
2019-02-06T20:21:32.647Z,-3.20
2019-02-06T20:24:02.491Z,-3.20
2019-02-06T20:26:35.190Z,-3.30
2019-02-06T20:29:04.420Z,-3.30
2019-02-06T20:31:32.897Z,-3.30
2019-02-06T20:34:01.490Z,-3.40
2019-02-06T20:36:29.990Z,-3.40
2019-02-06T20:38:58.483Z,-3.50
2019-02-06T20:41:30.618Z,-3.60
2019-02-06T20:43:59.105Z,-3.60
2019-02-06T20:46:27.531Z,-3.60
2019-02-06T20:48:55.976Z,-3.60
2019-02-06T20:51:24.479Z,-3.60
2019-02-06T20:53:52.998Z,-3.70
2019-02-06T20:56:21.500Z,-3.70
2019-02-06T20:58:50.395Z,-3.80
2019-02-06T21:01:18.832Z,-3.80
2019-02-06T21:03:47.352Z,-3.90
2019-02-06T21:06:15.858Z,-3.90
2019-02-06T21:08:44.619Z,-3.90
2019-02-06T21:11:13.067Z,-4.00
2019-02-06T21:13:41.482Z,-4.00
2019-02-06T21:16:09.890Z,-4.00
2019-02-06T21:18:38.339Z,-4.10
2019-02-06T21:21:06.834Z,-4.20
2019-02-06T21:23:35.256Z,-4.20
2019-02-06T21:26:03.823Z,-4.10
2019-02-06T21:28:32.270Z,-4.20
2019-02-06T21:31:00.858Z,-4.20
2019-02-06T21:33:29.369Z,-4.30
2019-02-06T21:35:57.829Z,-4.30
2019-02-06T21:38:26.268Z,-4.40
2019-02-06T21:40:54.684Z,-4.30
2019-02-06T21:43:23.159Z,-4.30
2019-02-06T21:45:51.670Z,-4.40
2019-02-06T21:48:22.402Z,-4.30
2019-02-06T21:50:50.979Z,-4.40
2019-02-06T21:53:19.393Z,-4.40
2019-02-06T21:55:47.816Z,-4.40
2019-02-06T21:58:16.329Z,-4.40
2019-02-06T22:00:44.778Z,-4.40
2019-02-06T22:03:13.806Z,-4.50
2019-02-06T22:05:42.319Z,-4.60
2019-02-06T22:08:10.754Z,-4.60
2019-02-06T22:10:39.171Z,-4.50
2019-02-06T22:13:11.212Z,-4.50
2019-02-06T22:15:39.622Z,-4.50
2019-02-06T22:18:08.652Z,-4.50
2019-02-06T22:20:37.090Z,-4.50
2019-02-06T22:23:05.579Z,-4.40
2019-02-06T22:25:34.031Z,-4.40
2019-02-06T22:28:02.445Z,-4.40
2019-02-06T22:30:31.335Z,-4.40
2019-02-06T22:32:59.865Z,-4.40
2019-02-06T22:35:28.359Z,-4.40
2019-02-06T22:37:56.955Z,-4.40
2019-02-06T22:40:26.642Z,-4.40
2019-02-06T22:42:55.163Z,-4.30
2019-02-06T22:45:27.968Z,-4.30
2019-02-06T22:47:56.455Z,-4.30
2019-02-06T22:50:27.629Z,-4.30
2019-02-06T22:52:56.298Z,-4.40
2019-02-06T22:55:25.082Z,-4.30
2019-02-06T22:57:53.876Z,-4.30
2019-02-06T23:00:45.911Z,-4.20
2019-02-06T23:03:16.399Z,-4.20
2019-02-06T23:05:44.820Z,-4.10
2019-02-06T23:08:13.237Z,-4.10
2019-02-06T23:10:41.754Z,-4.10
2019-02-06T23:13:10.607Z,-4.00
2019-02-06T23:15:39.230Z,-4.00
2019-02-06T23:18:07.907Z,-4.00
2019-02-06T23:20:36.503Z,-3.90
2019-02-06T23:23:05.299Z,-3.90
2019-02-06T23:25:33.786Z,-3.80
2019-02-06T23:28:02.230Z,-3.80
2019-02-06T23:30:38.827Z,-3.80
2019-02-06T23:33:07.244Z,-3.80
2019-02-06T23:35:35.990Z,-3.80
2019-02-06T23:38:04.961Z,-3.70
2019-02-06T23:40:33.415Z,-3.70
2019-02-06T23:43:02.116Z,-3.60
2019-02-06T23:45:30.531Z,-3.70
2019-02-06T23:47:59.003Z,-3.60
2019-02-06T23:50:27.422Z,-3.60
2019-02-06T23:52:55.851Z,-3.70
2019-02-06T23:55:24.271Z,-3.80
2019-02-06T23:57:52.699Z,-3.80
